sensor_id;sensor_type;location;lat;lon;timestamp;P1;durP1;ratioP1;P2;durP2;ratioP2
64186;SDS011;50491;39.484;-8.540;2022-11-15T00:00:45;13.60;;;7.85;;
64186;SDS011;50491;39.484;-8.540;2022-11-15T00:03:04;12.80;;;8.27;;
64186;SDS011;50491;39.484;-8.540;2022-11-15T00:05:24;20.77;;;10.93;;
64186;SDS011;50491;39.484;-8.540;2022-11-15T00:07:43;16.10;;;9.52;;
64186;SDS011;50491;39.484;-8.540;2022-11-15T00:15:50;17.95;;;9.20;;
64186;SDS011;50491;39.484;-8.540;2022-11-15T00:18:13;21.00;;;10.25;;
64186;SDS011;50491;39.484;-8.540;2022-11-15T00:20:35;21.55;;;10.13;;
64186;SDS011;50491;39.484;-8.540;2022-11-15T00:26:11;14.40;;;9.05;;
64186;SDS011;50491;39.484;-8.540;2022-11-15T00:28:32;15.00;;;9.32;;
64186;SDS011;50491;39.484;-8.540;2022-11-15T00:31:13;18.33;;;10.05;;
64186;SDS011;50491;39.484;-8.540;2022-11-15T00:33:33;16.70;;;8.57;;
64186;SDS011;50491;39.484;-8.540;2022-11-15T00:35:52;17.23;;;8.60;;
64186;SDS011;50491;39.484;-8.540;2022-11-15T00:38:11;16.63;;;7.95;;
64186;SDS011;50491;39.484;-8.540;2022-11-15T00:40:30;11.32;;;6.22;;
64186;SDS011;50491;39.484;-8.540;2022-11-15T00:42:49;10.73;;;6.85;;
64186;SDS011;50491;39.484;-8.540;2022-11-15T00:45:09;11.88;;;6.55;;
64186;SDS011;50491;39.484;-8.540;2022-11-15T00:47:28;8.75;;;6.43;;
64186;SDS011;50491;39.484;-8.540;2022-11-15T00:52:25;9.07;;;6.05;;
64186;SDS011;50491;39.484;-8.540;2022-11-15T00:54:44;7.80;;;4.95;;
64186;SDS011;50491;39.484;-8.540;2022-11-15T00:57:03;10.00;;;5.28;;
64186;SDS011;50491;39.484;-8.540;2022-11-15T00:59:29;8.75;;;4.55;;
64186;SDS011;50491;39.484;-8.540;2022-11-15T01:01:48;10.35;;;4.75;;
64186;SDS011;50491;39.484;-8.540;2022-11-15T01:04:08;9.35;;;5.30;;
64186;SDS011;50491;39.484;-8.540;2022-11-15T01:06:27;5.70;;;4.68;;
64186;SDS011;50491;39.484;-8.540;2022-11-15T01:08:46;11.50;;;5.20;;
64186;SDS011;50491;39.484;-8.540;2022-11-15T01:11:06;6.70;;;4.32;;
64186;SDS011;50491;39.484;-8.540;2022-11-15T01:13:31;6.53;;;4.28;;
64186;SDS011;50491;39.484;-8.540;2022-11-15T01:15:51;5.05;;;3.90;;
64186;SDS011;50491;39.484;-8.540;2022-11-15T01:18:16;6.03;;;3.88;;
64186;SDS011;50491;39.484;-8.540;2022-11-15T01:20:42;6.90;;;3.45;;
64186;SDS011;50491;39.484;-8.540;2022-11-15T01:23:01;7.10;;;4.57;;
64186;SDS011;50491;39.484;-8.540;2022-11-15T01:25:27;5.30;;;3.45;;
64186;SDS011;50491;39.484;-8.540;2022-11-15T01:30:12;5.05;;;3.20;;
64186;SDS011;50491;39.484;-8.540;2022-11-15T01:32:38;6.55;;;4.03;;
64186;SDS011;50491;39.484;-8.540;2022-11-15T01:35:28;6.78;;;3.70;;
64186;SDS011;50491;39.484;-8.540;2022-11-15T01:37:47;6.55;;;3.55;;
64186;SDS011;50491;39.484;-8.540;2022-11-15T01:40:06;9.82;;;3.85;;
64186;SDS011;50491;39.484;-8.540;2022-11-15T01:42:26;6.50;;;3.40;;
64186;SDS011;50491;39.484;-8.540;2022-11-15T01:44:51;4.20;;;2.92;;
64186;SDS011;50491;39.484;-8.540;2022-11-15T01:47:17;5.10;;;3.10;;
64186;SDS011;50491;39.484;-8.540;2022-11-15T01:50:12;4.43;;;3.28;;
64186;SDS011;50491;39.484;-8.540;2022-11-15T01:53:05;6.30;;;3.15;;
64186;SDS011;50491;39.484;-8.540;2022-11-15T01:58:22;6.38;;;3.67;;
64186;SDS011;50491;39.484;-8.540;2022-11-15T02:00:41;4.57;;;3.05;;
64186;SDS011;50491;39.484;-8.540;2022-11-15T02:08:57;3.90;;;2.97;;
64186;SDS011;50491;39.484;-8.540;2022-11-15T02:11:17;2.95;;;2.60;;
64186;SDS011;50491;39.484;-8.540;2022-11-15T02:13:37;6.68;;;2.83;;
64186;SDS011;50491;39.484;-8.540;2022-11-15T02:16:12;4.63;;;3.13;;
64186;SDS011;50491;39.484;-8.540;2022-11-15T02:18:34;6.40;;;2.97;;
64186;SDS011;50491;39.484;-8.540;2022-11-15T02:29:05;6.22;;;3.38;;
64186;SDS011;50491;39.484;-8.540;2022-11-15T02:34:50;7.78;;;4.15;;
64186;SDS011;50491;39.484;-8.540;2022-11-15T02:37:27;9.95;;;5.55;;
64186;SDS011;50491;39.484;-8.540;2022-11-15T02:43:07;11.55;;;6.20;;
64186;SDS011;50491;39.484;-8.540;2022-11-15T02:45:55;11.55;;;5.53;;
64186;SDS011;50491;39.484;-8.540;2022-11-15T02:55:46;13.95;;;8.00;;
64186;SDS011;50491;39.484;-8.540;2022-11-15T03:00:35;13.57;;;7.03;;
64186;SDS011;50491;39.484;-8.540;2022-11-15T03:09:18;15.35;;;7.20;;
64186;SDS011;50491;39.484;-8.540;2022-11-15T03:11:46;17.73;;;6.65;;
64186;SDS011;50491;39.484;-8.540;2022-11-15T03:14:12;16.70;;;7.28;;
64186;SDS011;50491;39.484;-8.540;2022-11-15T03:16:47;16.60;;;6.90;;
64186;SDS011;50491;39.484;-8.540;2022-11-15T03:24:10;12.18;;;5.63;;
64186;SDS011;50491;39.484;-8.540;2022-11-15T03:32:25;5.75;;;3.35;;
64186;SDS011;50491;39.484;-8.540;2022-11-15T03:35:19;5.10;;;3.22;;
64186;SDS011;50491;39.484;-8.540;2022-11-15T03:40:42;5.70;;;3.10;;
64186;SDS011;50491;39.484;-8.540;2022-11-15T03:43:15;6.55;;;2.97;;
64186;SDS011;50491;39.484;-8.540;2022-11-15T03:45:38;3.67;;;2.42;;
64186;SDS011;50491;39.484;-8.540;2022-11-15T03:48:35;4.10;;;2.53;;
64186;SDS011;50491;39.484;-8.540;2022-11-15T03:50:56;3.30;;;2.20;;
64186;SDS011;50491;39.484;-8.540;2022-11-15T03:53:16;3.80;;;2.92;;
64186;SDS011;50491;39.484;-8.540;2022-11-15T03:55:35;6.97;;;2.50;;
64186;SDS011;50491;39.484;-8.540;2022-11-15T03:57:56;2.85;;;1.90;;
64186;SDS011;50491;39.484;-8.540;2022-11-15T04:00:18;7.78;;;2.25;;
64186;SDS011;50491;39.484;-8.540;2022-11-15T04:05:03;7.78;;;2.10;;
64186;SDS011;50491;39.484;-8.540;2022-11-15T04:07:23;4.38;;;2.17;;
64186;SDS011;50491;39.484;-8.540;2022-11-15T04:09:42;11.00;;;3.30;;
64186;SDS011;50491;39.484;-8.540;2022-11-15T04:12:19;2.90;;;2.50;;
64186;SDS011;50491;39.484;-8.540;2022-11-15T04:15:11;4.05;;;2.63;;
64186;SDS011;50491;39.484;-8.540;2022-11-15T04:17:32;5.03;;;3.03;;
64186;SDS011;50491;39.484;-8.540;2022-11-15T04:19:51;4.63;;;2.85;;
64186;SDS011;50491;39.484;-8.540;2022-11-15T04:22:29;7.95;;;3.45;;
64186;SDS011;50491;39.484;-8.540;2022-11-15T04:25:07;8.45;;;3.88;;
64186;SDS011;50491;39.484;-8.540;2022-11-15T04:27:26;11.77;;;4.20;;
64186;SDS011;50491;39.484;-8.540;2022-11-15T04:29:45;5.82;;;3.10;;
64186;SDS011;50491;39.484;-8.540;2022-11-15T04:32:05;13.85;;;4.07;;
64186;SDS011;50491;39.484;-8.540;2022-11-15T04:34:25;6.30;;;3.83;;
64186;SDS011;50491;39.484;-8.540;2022-11-15T04:37:16;8.85;;;4.15;;
64186;SDS011;50491;39.484;-8.540;2022-11-15T04:40:07;7.47;;;5.05;;
64186;SDS011;50491;39.484;-8.540;2022-11-15T04:42:52;6.93;;;4.25;;
64186;SDS011;50491;39.484;-8.540;2022-11-15T04:45:18;9.73;;;4.85;;
64186;SDS011;50491;39.484;-8.540;2022-11-15T04:47:44;7.55;;;4.35;;
64186;SDS011;50491;39.484;-8.540;2022-11-15T04:50:04;12.00;;;4.18;;
64186;SDS011;50491;39.484;-8.540;2022-11-15T04:52:24;8.15;;;5.00;;
64186;SDS011;50491;39.484;-8.540;2022-11-15T04:54:43;11.90;;;4.60;;
64186;SDS011;50491;39.484;-8.540;2022-11-15T04:57:03;8.20;;;3.90;;
64186;SDS011;50491;39.484;-8.540;2022-11-15T04:59:22;6.95;;;4.55;;
64186;SDS011;50491;39.484;-8.540;2022-11-15T05:01:41;10.80;;;4.03;;
64186;SDS011;50491;39.484;-8.540;2022-11-15T05:04:32;6.70;;;3.65;;
64186;SDS011;50491;39.484;-8.540;2022-11-15T05:06:58;5.95;;;3.67;;
64186;SDS011;50491;39.484;-8.540;2022-11-15T05:09:17;6.20;;;3.50;;
64186;SDS011;50491;39.484;-8.540;2022-11-15T05:11:37;5.75;;;3.92;;
64186;SDS011;50491;39.484;-8.540;2022-11-15T05:14:03;13.00;;;4.53;;
64186;SDS011;50491;39.484;-8.540;2022-11-15T05:16:29;7.72;;;3.90;;
64186;SDS011;50491;39.484;-8.540;2022-11-15T05:18:52;7.18;;;3.97;;
64186;SDS011;50491;39.484;-8.540;2022-11-15T05:21:43;11.10;;;3.47;;
64186;SDS011;50491;39.484;-8.540;2022-11-15T05:24:03;10.95;;;3.25;;
64186;SDS011;50491;39.484;-8.540;2022-11-15T05:26:23;8.77;;;3.50;;
64186;SDS011;50491;39.484;-8.540;2022-11-15T05:28:42;6.13;;;3.17;;
64186;SDS011;50491;39.484;-8.540;2022-11-15T05:31:02;6.65;;;2.53;;
64186;SDS011;50491;39.484;-8.540;2022-11-15T05:39:34;5.25;;;2.90;;
64186;SDS011;50491;39.484;-8.540;2022-11-15T05:41:59;10.85;;;3.40;;
64186;SDS011;50491;39.484;-8.540;2022-11-15T05:47:21;6.68;;;2.70;;
64186;SDS011;50491;39.484;-8.540;2022-11-15T05:50:00;10.10;;;2.70;;
64186;SDS011;50491;39.484;-8.540;2022-11-15T05:52:20;6.57;;;2.60;;
64186;SDS011;50491;39.484;-8.540;2022-11-15T05:55:13;7.20;;;2.63;;
64186;SDS011;50491;39.484;-8.540;2022-11-15T05:57:39;2.47;;;2.20;;
64186;SDS011;50491;39.484;-8.540;2022-11-15T05:59:59;3.45;;;2.47;;
64186;SDS011;50491;39.484;-8.540;2022-11-15T06:02:18;8.88;;;2.85;;
64186;SDS011;50491;39.484;-8.540;2022-11-15T06:04:37;4.43;;;2.63;;
64186;SDS011;50491;39.484;-8.540;2022-11-15T06:06:58;7.07;;;2.78;;
64186;SDS011;50491;39.484;-8.540;2022-11-15T06:09:17;9.55;;;2.42;;
64186;SDS011;50491;39.484;-8.540;2022-11-15T06:11:55;4.75;;;2.00;;
64186;SDS011;50491;39.484;-8.540;2022-11-15T06:17:10;6.45;;;2.10;;
64186;SDS011;50491;39.484;-8.540;2022-11-15T06:20:13;6.90;;;1.95;;
64186;SDS011;50491;39.484;-8.540;2022-11-15T06:26:07;4.75;;;2.58;;
64186;SDS011;50491;39.484;-8.540;2022-11-15T06:28:45;14.18;;;2.58;;
64186;SDS011;50491;39.484;-8.540;2022-11-15T06:31:07;5.32;;;2.35;;
64186;SDS011;50491;39.484;-8.540;2022-11-15T06:36:12;8.77;;;2.25;;
64186;SDS011;50491;39.484;-8.540;2022-11-15T06:38:44;4.35;;;1.98;;
64186;SDS011;50491;39.484;-8.540;2022-11-15T06:41:07;4.93;;;1.65;;
64186;SDS011;50491;39.484;-8.540;2022-11-15T06:43:27;6.97;;;2.20;;
64186;SDS011;50491;39.484;-8.540;2022-11-15T06:45:53;3.03;;;2.00;;
64186;SDS011;50491;39.484;-8.540;2022-11-15T06:48:12;9.40;;;1.85;;
64186;SDS011;50491;39.484;-8.540;2022-11-15T06:50:31;10.07;;;2.20;;
64186;SDS011;50491;39.484;-8.540;2022-11-15T06:52:50;5.65;;;2.33;;
64186;SDS011;50491;39.484;-8.540;2022-11-15T06:55:09;4.78;;;1.98;;
64186;SDS011;50491;39.484;-8.540;2022-11-15T06:57:28;7.78;;;2.55;;
64186;SDS011;50491;39.484;-8.540;2022-11-15T06:59:47;14.82;;;3.20;;
64186;SDS011;50491;39.484;-8.540;2022-11-15T07:02:06;4.15;;;1.92;;
64186;SDS011;50491;39.484;-8.540;2022-11-15T07:13:06;3.30;;;2.10;;
64186;SDS011;50491;39.484;-8.540;2022-11-15T07:15:25;7.75;;;1.88;;
64186;SDS011;50491;39.484;-8.540;2022-11-15T07:17:44;4.82;;;1.90;;
64186;SDS011;50491;39.484;-8.540;2022-11-15T07:20:04;7.15;;;1.80;;
64186;SDS011;50491;39.484;-8.540;2022-11-15T07:22:23;5.07;;;2.05;;
64186;SDS011;50491;39.484;-8.540;2022-11-15T07:30:43;8.37;;;2.73;;
64186;SDS011;50491;39.484;-8.540;2022-11-15T07:33:02;9.02;;;2.17;;
64186;SDS011;50491;39.484;-8.540;2022-11-15T07:35:21;7.80;;;2.08;;
64186;SDS011;50491;39.484;-8.540;2022-11-15T07:37:41;8.00;;;2.72;;
64186;SDS011;50491;39.484;-8.540;2022-11-15T07:43:01;17.50;;;2.85;;
64186;SDS011;50491;39.484;-8.540;2022-11-15T07:45:21;8.45;;;2.85;;
64186;SDS011;50491;39.484;-8.540;2022-11-15T07:47:44;5.18;;;2.00;;
64186;SDS011;50491;39.484;-8.540;2022-11-15T07:50:04;8.40;;;2.15;;
64186;SDS011;50491;39.484;-8.540;2022-11-15T07:52:23;10.15;;;2.63;;
64186;SDS011;50491;39.484;-8.540;2022-11-15T07:54:43;7.40;;;2.05;;
64186;SDS011;50491;39.484;-8.540;2022-11-15T07:57:02;7.70;;;1.58;;
64186;SDS011;50491;39.484;-8.540;2022-11-15T07:59:28;9.23;;;2.20;;
64186;SDS011;50491;39.484;-8.540;2022-11-15T08:01:47;7.65;;;2.58;;
64186;SDS011;50491;39.484;-8.540;2022-11-15T08:04:07;4.72;;;1.98;;
64186;SDS011;50491;39.484;-8.540;2022-11-15T08:06:26;3.00;;;1.48;;
64186;SDS011;50491;39.484;-8.540;2022-11-15T08:11:48;9.32;;;1.85;;
64186;SDS011;50491;39.484;-8.540;2022-11-15T08:14:07;6.43;;;1.48;;
64186;SDS011;50491;39.484;-8.540;2022-11-15T08:16:26;10.30;;;2.00;;
64186;SDS011;50491;39.484;-8.540;2022-11-15T08:18:45;7.95;;;1.92;;
64186;SDS011;50491;39.484;-8.540;2022-11-15T08:21:04;6.53;;;1.50;;
64186;SDS011;50491;39.484;-8.540;2022-11-15T08:23:25;4.22;;;1.70;;
64186;SDS011;50491;39.484;-8.540;2022-11-15T08:25:44;8.23;;;2.30;;
64186;SDS011;50491;39.484;-8.540;2022-11-15T08:28:30;8.90;;;2.00;;
64186;SDS011;50491;39.484;-8.540;2022-11-15T08:30:50;7.60;;;2.03;;
64186;SDS011;50491;39.484;-8.540;2022-11-15T08:33:12;4.07;;;1.33;;
64186;SDS011;50491;39.484;-8.540;2022-11-15T08:35:32;4.18;;;1.52;;
64186;SDS011;50491;39.484;-8.540;2022-11-15T08:37:54;8.68;;;2.17;;
64186;SDS011;50491;39.484;-8.540;2022-11-15T08:40:14;9.73;;;2.13;;
64186;SDS011;50491;39.484;-8.540;2022-11-15T08:42:33;4.75;;;1.45;;
64186;SDS011;50491;39.484;-8.540;2022-11-15T08:44:53;8.57;;;2.35;;
64186;SDS011;50491;39.484;-8.540;2022-11-15T08:47:12;9.05;;;2.13;;
64186;SDS011;50491;39.484;-8.540;2022-11-15T08:49:32;5.00;;;2.00;;
64186;SDS011;50491;39.484;-8.540;2022-11-15T08:51:51;7.65;;;2.35;;
64186;SDS011;50491;39.484;-8.540;2022-11-15T08:54:10;9.45;;;2.35;;
64186;SDS011;50491;39.484;-8.540;2022-11-15T08:56:29;4.20;;;1.83;;
64186;SDS011;50491;39.484;-8.540;2022-11-15T08:58:49;6.90;;;1.95;;
64186;SDS011;50491;39.484;-8.540;2022-11-15T09:01:18;6.50;;;2.28;;
64186;SDS011;50491;39.484;-8.540;2022-11-15T09:03:39;14.00;;;2.78;;
64186;SDS011;50491;39.484;-8.540;2022-11-15T09:05:59;5.82;;;1.83;;
64186;SDS011;50491;39.484;-8.540;2022-11-15T09:08:19;7.07;;;2.70;;
64186;SDS011;50491;39.484;-8.540;2022-11-15T09:10:38;4.57;;;2.25;;
64186;SDS011;50491;39.484;-8.540;2022-11-15T09:12:57;6.95;;;2.28;;
64186;SDS011;50491;39.484;-8.540;2022-11-15T09:15:16;12.45;;;2.85;;
64186;SDS011;50491;39.484;-8.540;2022-11-15T09:17:36;14.93;;;3.10;;
64186;SDS011;50491;39.484;-8.540;2022-11-15T09:19:55;11.90;;;2.40;;
64186;SDS011;50491;39.484;-8.540;2022-11-15T09:22:14;9.32;;;2.30;;
64186;SDS011;50491;39.484;-8.540;2022-11-15T09:24:33;7.65;;;2.22;;
64186;SDS011;50491;39.484;-8.540;2022-11-15T09:26:52;12.45;;;2.15;;
64186;SDS011;50491;39.484;-8.540;2022-11-15T09:29:12;6.35;;;2.08;;
64186;SDS011;50491;39.484;-8.540;2022-11-15T09:31:32;12.20;;;2.63;;
64186;SDS011;50491;39.484;-8.540;2022-11-15T09:33:51;7.47;;;2.10;;
64186;SDS011;50491;39.484;-8.540;2022-11-15T09:36:10;7.20;;;2.13;;
64186;SDS011;50491;39.484;-8.540;2022-11-15T09:38:31;15.52;;;2.60;;
64186;SDS011;50491;39.484;-8.540;2022-11-15T09:40:52;17.23;;;3.03;;
64186;SDS011;50491;39.484;-8.540;2022-11-15T09:46:21;8.65;;;1.90;;
64186;SDS011;50491;39.484;-8.540;2022-11-15T09:48:56;5.45;;;1.70;;
64186;SDS011;50491;39.484;-8.540;2022-11-15T09:53:57;8.18;;;2.10;;
64186;SDS011;50491;39.484;-8.540;2022-11-15T09:56:03;9.85;;;2.72;;
64186;SDS011;50491;39.484;-8.540;2022-11-15T10:00:35;8.55;;;2.58;;
64186;SDS011;50491;39.484;-8.540;2022-11-15T10:05:11;9.50;;;2.25;;
64186;SDS011;50491;39.484;-8.540;2022-11-15T10:09:19;6.72;;;2.22;;
64186;SDS011;50491;39.484;-8.540;2022-11-15T10:11:25;13.02;;;3.08;;
64186;SDS011;50491;39.484;-8.540;2022-11-15T10:13:32;18.73;;;2.75;;
64186;SDS011;50491;39.484;-8.540;2022-11-15T10:15:53;7.20;;;2.22;;
64186;SDS011;50491;39.484;-8.540;2022-11-15T10:18:07;10.55;;;2.63;;
64186;SDS011;50491;39.484;-8.540;2022-11-15T10:20:21;12.23;;;3.20;;
64186;SDS011;50491;39.484;-8.540;2022-11-15T10:22:44;7.03;;;2.83;;
64186;SDS011;50491;39.484;-8.540;2022-11-15T10:24:47;14.27;;;2.88;;
64186;SDS011;50491;39.484;-8.540;2022-11-15T10:26:48;7.90;;;2.95;;
64186;SDS011;50491;39.484;-8.540;2022-11-15T10:28:49;12.32;;;2.75;;
64186;SDS011;50491;39.484;-8.540;2022-11-15T10:30:51;8.82;;;2.40;;
64186;SDS011;50491;39.484;-8.540;2022-11-15T10:33:17;7.50;;;2.33;;
64186;SDS011;50491;39.484;-8.540;2022-11-15T10:35:37;10.82;;;3.10;;
64186;SDS011;50491;39.484;-8.540;2022-11-15T10:37:38;11.73;;;3.35;;
64186;SDS011;50491;39.484;-8.540;2022-11-15T10:39:38;11.73;;;3.28;;
64186;SDS011;50491;39.484;-8.540;2022-11-15T10:41:41;8.68;;;2.67;;
64186;SDS011;50491;39.484;-8.540;2022-11-15T10:43:42;6.82;;;2.88;;
64186;SDS011;50491;39.484;-8.540;2022-11-15T10:45:43;6.32;;;2.47;;
64186;SDS011;50491;39.484;-8.540;2022-11-15T10:47:44;10.88;;;2.92;;
64186;SDS011;50491;39.484;-8.540;2022-11-15T10:49:52;10.18;;;2.78;;
64186;SDS011;50491;39.484;-8.540;2022-11-15T10:53:57;10.23;;;2.03;;
64186;SDS011;50491;39.484;-8.540;2022-11-15T10:56:19;8.05;;;2.80;;
64186;SDS011;50491;39.484;-8.540;2022-11-15T11:00:39;3.70;;;2.30;;
64186;SDS011;50491;39.484;-8.540;2022-11-15T11:03:06;11.48;;;3.10;;
64186;SDS011;50491;39.484;-8.540;2022-11-15T11:05:37;6.20;;;2.53;;
64186;SDS011;50491;39.484;-8.540;2022-11-15T11:07:39;8.70;;;3.45;;
64186;SDS011;50491;39.484;-8.540;2022-11-15T11:10:17;9.50;;;2.25;;
64186;SDS011;50491;39.484;-8.540;2022-11-15T11:12:19;10.05;;;2.42;;
64186;SDS011;50491;39.484;-8.540;2022-11-15T11:14:32;4.60;;;2.55;;
64186;SDS011;50491;39.484;-8.540;2022-11-15T11:16:42;6.10;;;2.58;;
64186;SDS011;50491;39.484;-8.540;2022-11-15T11:19:14;9.52;;;3.00;;
64186;SDS011;50491;39.484;-8.540;2022-11-15T11:21:18;12.10;;;2.70;;
64186;SDS011;50491;39.484;-8.540;2022-11-15T11:35:20;6.38;;;2.30;;
64186;SDS011;50491;39.484;-8.540;2022-11-15T11:40:37;5.00;;;1.90;;
64186;SDS011;50491;39.484;-8.540;2022-11-15T11:42:34;7.32;;;2.25;;
64186;SDS011;50491;39.484;-8.540;2022-11-15T11:50:11;3.97;;;2.10;;
64186;SDS011;50491;39.484;-8.540;2022-11-15T11:56:54;6.82;;;1.92;;
64186;SDS011;50491;39.484;-8.540;2022-11-15T11:59:21;5.43;;;1.60;;
64186;SDS011;50491;39.484;-8.540;2022-11-15T12:01:47;8.02;;;1.90;;
64186;SDS011;50491;39.484;-8.540;2022-11-15T12:03:51;2.72;;;1.92;;
64186;SDS011;50491;39.484;-8.540;2022-11-15T12:06:05;4.50;;;1.60;;
64186;SDS011;50491;39.484;-8.540;2022-11-15T12:08:41;3.85;;;1.90;;
64186;SDS011;50491;39.484;-8.540;2022-11-15T12:10:48;3.17;;;2.30;;
64186;SDS011;50491;39.484;-8.540;2022-11-15T12:13:00;7.22;;;3.00;;
64186;SDS011;50491;39.484;-8.540;2022-11-15T12:15:09;7.07;;;2.40;;
64186;SDS011;50491;39.484;-8.540;2022-11-15T12:17:11;4.95;;;2.08;;
64186;SDS011;50491;39.484;-8.540;2022-11-15T12:19:12;4.13;;;1.60;;
64186;SDS011;50491;39.484;-8.540;2022-11-15T12:21:14;8.20;;;1.60;;
64186;SDS011;50491;39.484;-8.540;2022-11-15T12:23:28;7.72;;;1.60;;
64186;SDS011;50491;39.484;-8.540;2022-11-15T12:25:52;1.92;;;1.42;;
64186;SDS011;50491;39.484;-8.540;2022-11-15T12:30:41;2.20;;;1.25;;
64186;SDS011;50491;39.484;-8.540;2022-11-15T12:33:32;6.93;;;1.95;;
64186;SDS011;50491;39.484;-8.540;2022-11-15T12:35:37;7.10;;;1.75;;
64186;SDS011;50491;39.484;-8.540;2022-11-15T12:53:25;2.75;;;1.05;;
64186;SDS011;50491;39.484;-8.540;2022-11-15T12:55:31;5.88;;;1.38;;
64186;SDS011;50491;39.484;-8.540;2022-11-15T12:57:34;0.80;;;0.80;;
64186;SDS011;50491;39.484;-8.540;2022-11-15T13:02:15;3.15;;;1.48;;
64186;SDS011;50491;39.484;-8.540;2022-11-15T13:04:39;1.00;;;0.98;;
64186;SDS011;50491;39.484;-8.540;2022-11-15T13:07:01;4.18;;;1.05;;
64186;SDS011;50491;39.484;-8.540;2022-11-15T13:09:03;2.70;;;1.10;;
64186;SDS011;50491;39.484;-8.540;2022-11-15T13:11:46;2.08;;;1.10;;
64186;SDS011;50491;39.484;-8.540;2022-11-15T13:16:55;13.82;;;2.92;;
64186;SDS011;50491;39.484;-8.540;2022-11-15T13:18:58;5.60;;;3.17;;
64186;SDS011;50491;39.484;-8.540;2022-11-15T13:21:22;1.75;;;1.35;;
64186;SDS011;50491;39.484;-8.540;2022-11-15T13:24:01;3.28;;;1.83;;
64186;SDS011;50491;39.484;-8.540;2022-11-15T13:26:06;1.90;;;1.38;;
64186;SDS011;50491;39.484;-8.540;2022-11-15T13:28:17;4.60;;;1.63;;
64186;SDS011;50491;39.484;-8.540;2022-11-15T13:30:22;2.25;;;0.75;;
64186;SDS011;50491;39.484;-8.540;2022-11-15T13:32:24;1.80;;;1.00;;
64186;SDS011;50491;39.484;-8.540;2022-11-15T13:34:29;0.80;;;0.80;;
64186;SDS011;50491;39.484;-8.540;2022-11-15T13:36:36;2.20;;;1.20;;
64186;SDS011;50491;39.484;-8.540;2022-11-15T13:41:10;1.10;;;1.00;;
64186;SDS011;50491;39.484;-8.540;2022-11-15T13:45:23;1.80;;;1.02;;
64186;SDS011;50491;39.484;-8.540;2022-11-15T13:47:27;0.80;;;0.80;;
64186;SDS011;50491;39.484;-8.540;2022-11-15T13:49:47;3.83;;;0.98;;
64186;SDS011;50491;39.484;-8.540;2022-11-15T13:51:51;1.55;;;0.80;;
64186;SDS011;50491;39.484;-8.540;2022-11-15T13:56:31;0.70;;;0.70;;
64186;SDS011;50491;39.484;-8.540;2022-11-15T13:58:52;41.65;;;5.30;;
64186;SDS011;50491;39.484;-8.540;2022-11-15T14:01:17;9.30;;;1.42;;
64186;SDS011;50491;39.484;-8.540;2022-11-15T14:03:41;3.15;;;1.08;;
64186;SDS011;50491;39.484;-8.540;2022-11-15T14:10:28;3.13;;;1.27;;
64186;SDS011;50491;39.484;-8.540;2022-11-15T14:12:34;4.57;;;1.20;;
64186;SDS011;50491;39.484;-8.540;2022-11-15T14:14:54;2.72;;;0.93;;
64186;SDS011;50491;39.484;-8.540;2022-11-15T14:16:56;4.22;;;1.02;;
64186;SDS011;50491;39.484;-8.540;2022-11-15T14:21:25;0.50;;;0.50;;
64186;SDS011;50491;39.484;-8.540;2022-11-15T14:23:44;1.05;;;0.60;;
64186;SDS011;50491;39.484;-8.540;2022-11-15T14:26:03;0.75;;;0.68;;
64186;SDS011;50491;39.484;-8.540;2022-11-15T14:30:42;2.08;;;0.65;;
64186;SDS011;50491;39.484;-8.540;2022-11-15T14:35:11;0.70;;;0.70;;
64186;SDS011;50491;39.484;-8.540;2022-11-15T14:37:33;2.20;;;2.03;;
64186;SDS011;50491;39.484;-8.540;2022-11-15T14:39:35;2.42;;;0.80;;
64186;SDS011;50491;39.484;-8.540;2022-11-15T14:41:35;1.85;;;0.73;;
64186;SDS011;50491;39.484;-8.540;2022-11-15T14:43:39;1.40;;;0.63;;
64186;SDS011;50491;39.484;-8.540;2022-11-15T14:45:40;7.03;;;1.40;;
64186;SDS011;50491;39.484;-8.540;2022-11-15T14:47:41;1.05;;;0.70;;
64186;SDS011;50491;39.484;-8.540;2022-11-15T14:49:42;0.70;;;0.70;;
64186;SDS011;50491;39.484;-8.540;2022-11-15T14:51:43;0.50;;;0.50;;
64186;SDS011;50491;39.484;-8.540;2022-11-15T14:53:44;0.70;;;0.70;;
64186;SDS011;50491;39.484;-8.540;2022-11-15T14:55:45;1.10;;;0.70;;
64186;SDS011;50491;39.484;-8.540;2022-11-15T14:57:46;0.70;;;0.60;;
64186;SDS011;50491;39.484;-8.540;2022-11-15T14:59:47;0.80;;;0.70;;
64186;SDS011;50491;39.484;-8.540;2022-11-15T15:01:47;0.70;;;0.70;;
64186;SDS011;50491;39.484;-8.540;2022-11-15T15:03:48;0.60;;;0.60;;
64186;SDS011;50491;39.484;-8.540;2022-11-15T15:05:51;0.60;;;0.60;;
64186;SDS011;50491;39.484;-8.540;2022-11-15T15:07:52;0.65;;;0.65;;
64186;SDS011;50491;39.484;-8.540;2022-11-15T15:09:56;1.85;;;1.73;;
64186;SDS011;50491;39.484;-8.540;2022-11-15T15:11:57;0.70;;;0.70;;
64186;SDS011;50491;39.484;-8.540;2022-11-15T15:13:57;1.85;;;0.70;;
64186;SDS011;50491;39.484;-8.540;2022-11-15T15:16:00;0.73;;;0.70;;
64186;SDS011;50491;39.484;-8.540;2022-11-15T15:18:19;0.80;;;0.60;;
64186;SDS011;50491;39.484;-8.540;2022-11-15T15:20:20;1.00;;;1.00;;
64186;SDS011;50491;39.484;-8.540;2022-11-15T15:22:39;1.35;;;0.90;;
64186;SDS011;50491;39.484;-8.540;2022-11-15T15:24:40;1.00;;;0.90;;
64186;SDS011;50491;39.484;-8.540;2022-11-15T15:26:42;0.88;;;0.80;;
64186;SDS011;50491;39.484;-8.540;2022-11-15T15:29:02;1.33;;;0.90;;
64186;SDS011;50491;39.484;-8.540;2022-11-15T15:31:21;0.90;;;0.90;;
64186;SDS011;50491;39.484;-8.540;2022-11-15T15:35:41;1.20;;;0.93;;
64186;SDS011;50491;39.484;-8.540;2022-11-15T15:38:01;0.90;;;0.90;;
64186;SDS011;50491;39.484;-8.540;2022-11-15T15:40:01;0.93;;;0.90;;
64186;SDS011;50491;39.484;-8.540;2022-11-15T15:42:02;1.45;;;0.88;;
64186;SDS011;50491;39.484;-8.540;2022-11-15T15:44:04;0.70;;;0.70;;
64186;SDS011;50491;39.484;-8.540;2022-11-15T15:46:07;0.50;;;0.50;;
64186;SDS011;50491;39.484;-8.540;2022-11-15T15:48:36;2.67;;;0.82;;
64186;SDS011;50491;39.484;-8.540;2022-11-15T15:50:39;4.35;;;1.10;;
64186;SDS011;50491;39.484;-8.540;2022-11-15T15:52:39;2.78;;;0.90;;
64186;SDS011;50491;39.484;-8.540;2022-11-15T15:54:40;2.58;;;0.88;;
64186;SDS011;50491;39.484;-8.540;2022-11-15T15:56:41;0.93;;;0.93;;
64186;SDS011;50491;39.484;-8.540;2022-11-15T16:01:01;2.05;;;0.60;;
64186;SDS011;50491;39.484;-8.540;2022-11-15T16:03:20;0.80;;;0.68;;
64186;SDS011;50491;39.484;-8.540;2022-11-15T16:05:21;0.70;;;0.70;;
64186;SDS011;50491;39.484;-8.540;2022-11-15T16:07:41;1.15;;;0.70;;
64186;SDS011;50491;39.484;-8.540;2022-11-15T16:09:43;1.75;;;1.02;;
64186;SDS011;50491;39.484;-8.540;2022-11-15T16:12:21;1.85;;;0.60;;
64186;SDS011;50491;39.484;-8.540;2022-11-15T16:14:22;2.35;;;1.00;;
64186;SDS011;50491;39.484;-8.540;2022-11-15T16:16:22;4.60;;;2.10;;
64186;SDS011;50491;39.484;-8.540;2022-11-15T16:18:48;3.92;;;1.60;;
64186;SDS011;50491;39.484;-8.540;2022-11-15T16:21:07;6.63;;;1.88;;
64186;SDS011;50491;39.484;-8.540;2022-11-15T16:23:26;3.42;;;1.48;;
64186;SDS011;50491;39.484;-8.540;2022-11-15T16:26:10;3.80;;;2.13;;
64186;SDS011;50491;39.484;-8.540;2022-11-15T16:31:22;4.53;;;2.00;;
64186;SDS011;50491;39.484;-8.540;2022-11-15T16:33:23;8.25;;;4.10;;
64186;SDS011;50491;39.484;-8.540;2022-11-15T16:35:23;7.55;;;2.10;;
64186;SDS011;50491;39.484;-8.540;2022-11-15T16:37:25;5.18;;;1.52;;
64186;SDS011;50491;39.484;-8.540;2022-11-15T16:39:26;7.00;;;1.65;;
64186;SDS011;50491;39.484;-8.540;2022-11-15T16:41:48;4.85;;;1.70;;
64186;SDS011;50491;39.484;-8.540;2022-11-15T16:43:49;3.75;;;2.13;;
64186;SDS011;50491;39.484;-8.540;2022-11-15T16:45:49;3.70;;;2.10;;
64186;SDS011;50491;39.484;-8.540;2022-11-15T16:47:51;11.90;;;5.50;;
64186;SDS011;50491;39.484;-8.540;2022-11-15T16:49:52;5.38;;;1.98;;
64186;SDS011;50491;39.484;-8.540;2022-11-15T16:51:53;6.07;;;2.10;;
64186;SDS011;50491;39.484;-8.540;2022-11-15T16:54:12;5.75;;;1.45;;
64186;SDS011;50491;39.484;-8.540;2022-11-15T16:56:31;8.52;;;2.70;;